sensor_id;sensor_type;location;lat;lon;timestamp;pressure;altitude;pressure_sealevel;temperature;humidity
57024;BME280;42916;54.346;18.562;2024-02-28T00:00:53;100679.94;;;3.14;100.00
57024;BME280;42916;54.346;18.562;2024-02-28T00:03:40;100685.43;;;3.12;100.00
57024;BME280;42916;54.346;18.562;2024-02-28T00:06:06;100679.98;;;3.12;100.00
57024;BME280;42916;54.346;18.562;2024-02-28T00:08:34;100678.66;;;3.15;100.00
57024;BME280;42916;54.346;18.562;2024-02-28T00:11:01;100678.61;;;3.17;100.00
57024;BME280;42916;54.346;18.562;2024-02-28T00:13:27;100671.17;;;3.16;100.00
57024;BME280;42916;54.346;18.562;2024-02-28T00:15:54;100665.92;;;3.14;100.00
57024;BME280;42916;54.346;18.562;2024-02-28T00:18:21;100667.74;;;3.14;100.00
57024;BME280;42916;54.346;18.562;2024-02-28T00:20:47;100670.98;;;3.14;100.00
57024;BME280;42916;54.346;18.562;2024-02-28T00:23:14;100673.78;;;3.14;100.00
57024;BME280;42916;54.346;18.562;2024-02-28T00:25:41;100672.95;;;3.14;100.00
57024;BME280;42916;54.346;18.562;2024-02-28T00:28:07;100673.36;;;3.12;100.00
57024;BME280;42916;54.346;18.562;2024-02-28T00:30:35;100669.59;;;3.11;100.00
57024;BME280;42916;54.346;18.562;2024-02-28T00:33:02;100668.48;;;3.12;100.00
57024;BME280;42916;54.346;18.562;2024-02-28T00:35:31;100661.40;;;3.13;100.00
57024;BME280;42916;54.346;18.562;2024-02-28T00:38:00;100665.91;;;3.12;100.00
57024;BME280;42916;54.346;18.562;2024-02-28T00:40:27;100671.70;;;3.10;100.00
57024;BME280;42916;54.346;18.562;2024-02-28T00:42:55;100675.77;;;3.09;100.00
57024;BME280;42916;54.346;18.562;2024-02-28T00:45:21;100685.35;;;3.05;100.00
57024;BME280;42916;54.346;18.562;2024-02-28T00:47:48;100683.06;;;3.02;100.00
57024;BME280;42916;54.346;18.562;2024-02-28T00:50:15;100684.70;;;3.00;100.00
57024;BME280;42916;54.346;18.562;2024-02-28T00:52:42;100684.41;;;2.98;100.00
57024;BME280;42916;54.346;18.562;2024-02-28T00:55:09;100682.33;;;2.96;100.00
57024;BME280;42916;54.346;18.562;2024-02-28T00:57:36;100683.16;;;2.97;100.00
57024;BME280;42916;54.346;18.562;2024-02-28T01:00:03;100682.95;;;2.96;100.00
57024;BME280;42916;54.346;18.562;2024-02-28T01:02:32;100679.91;;;2.95;100.00
57024;BME280;42916;54.346;18.562;2024-02-28T01:04:58;100680.10;;;2.96;100.00
57024;BME280;42916;54.346;18.562;2024-02-28T01:07:25;100675.92;;;2.96;100.00
57024;BME280;42916;54.346;18.562;2024-02-28T01:09:52;100680.80;;;2.96;100.00
57024;BME280;42916;54.346;18.562;2024-02-28T01:12:19;100678.60;;;2.95;100.00
57024;BME280;42916;54.346;18.562;2024-02-28T01:14:45;100681.13;;;2.95;100.00
57024;BME280;42916;54.346;18.562;2024-02-28T01:17:12;100674.86;;;2.92;100.00
57024;BME280;42916;54.346;18.562;2024-02-28T01:19:39;100670.88;;;2.90;100.00
57024;BME280;42916;54.346;18.562;2024-02-28T01:22:06;100672.20;;;2.89;100.00
57024;BME280;42916;54.346;18.562;2024-02-28T01:24:32;100669.96;;;2.87;100.00
57024;BME280;42916;54.346;18.562;2024-02-28T01:27:00;100658.23;;;2.87;100.00
57024;BME280;42916;54.346;18.562;2024-02-28T01:29:27;100658.19;;;2.87;100.00
57024;BME280;42916;54.346;18.562;2024-02-28T01:31:53;100652.91;;;2.86;100.00
57024;BME280;42916;54.346;18.562;2024-02-28T01:34:20;100653.73;;;2.84;100.00
57024;BME280;42916;54.346;18.562;2024-02-28T01:36:47;100652.58;;;2.84;100.00
57024;BME280;42916;54.346;18.562;2024-02-28T01:39:14;100649.64;;;2.85;100.00
57024;BME280;42916;54.346;18.562;2024-02-28T01:41:41;100657.41;;;2.84;100.00
57024;BME280;42916;54.346;18.562;2024-02-28T01:44:09;100658.16;;;2.84;100.00
57024;BME280;42916;54.346;18.562;2024-02-28T01:46:36;100654.96;;;2.82;100.00
57024;BME280;42916;54.346;18.562;2024-02-28T01:49:04;100646.99;;;2.77;100.00
57024;BME280;42916;54.346;18.562;2024-02-28T01:51:30;100646.81;;;2.73;100.00
57024;BME280;42916;54.346;18.562;2024-02-28T01:53:57;100648.28;;;2.70;100.00
57024;BME280;42916;54.346;18.562;2024-02-28T01:56:25;100646.58;;;2.69;100.00
57024;BME280;42916;54.346;18.562;2024-02-28T01:58:54;100648.98;;;2.69;100.00
57024;BME280;42916;54.346;18.562;2024-02-28T02:01:21;100649.27;;;2.70;100.00
57024;BME280;42916;54.346;18.562;2024-02-28T02:03:50;100642.94;;;2.69;100.00
57024;BME280;42916;54.346;18.562;2024-02-28T02:06:18;100647.86;;;2.70;100.00
57024;BME280;42916;54.346;18.562;2024-02-28T02:08:45;100644.57;;;2.70;100.00
57024;BME280;42916;54.346;18.562;2024-02-28T02:11:14;100647.83;;;2.71;100.00
57024;BME280;42916;54.346;18.562;2024-02-28T02:13:50;100644.77;;;2.71;100.00
57024;BME280;42916;54.346;18.562;2024-02-28T02:16:20;100643.88;;;2.73;100.00
57024;BME280;42916;54.346;18.562;2024-02-28T02:18:49;100645.09;;;2.74;100.00
57024;BME280;42916;54.346;18.562;2024-02-28T02:21:18;100646.84;;;2.77;100.00
57024;BME280;42916;54.346;18.562;2024-02-28T02:23:46;100646.99;;;2.76;100.00
57024;BME280;42916;54.346;18.562;2024-02-28T02:26:13;100647.52;;;2.75;100.00
57024;BME280;42916;54.346;18.562;2024-02-28T02:28:40;100648.17;;;2.74;100.00
57024;BME280;42916;54.346;18.562;2024-02-28T02:31:08;100647.92;;;2.73;100.00
57024;BME280;42916;54.346;18.562;2024-02-28T02:33:34;100650.45;;;2.73;100.00
57024;BME280;42916;54.346;18.562;2024-02-28T02:36:01;100650.00;;;2.75;100.00
57024;BME280;42916;54.346;18.562;2024-02-28T02:38:28;100653.50;;;2.78;100.00
57024;BME280;42916;54.346;18.562;2024-02-28T02:40:55;100654.95;;;2.78;100.00
57024;BME280;42916;54.346;18.562;2024-02-28T02:43:21;100656.27;;;2.79;100.00
57024;BME280;42916;54.346;18.562;2024-02-28T02:45:48;100656.23;;;2.79;100.00
57024;BME280;42916;54.346;18.562;2024-02-28T02:48:15;100652.27;;;2.80;100.00
57024;BME280;42916;54.346;18.562;2024-02-28T02:50:42;100650.06;;;2.80;100.00
57024;BME280;42916;54.346;18.562;2024-02-28T02:53:10;100648.21;;;2.78;100.00
57024;BME280;42916;54.346;18.562;2024-02-28T02:55:37;100647.49;;;2.78;100.00
57024;BME280;42916;54.346;18.562;2024-02-28T02:58:04;100643.31;;;2.75;100.00
57024;BME280;42916;54.346;18.562;2024-02-28T03:00:30;100642.40;;;2.74;100.00
57024;BME280;42916;54.346;18.562;2024-02-28T03:02:57;100643.14;;;2.74;100.00
57024;BME280;42916;54.346;18.562;2024-02-28T03:05:24;100644.88;;;2.73;100.00
57024;BME280;42916;54.346;18.562;2024-02-28T03:07:51;100643.43;;;2.73;100.00
57024;BME280;42916;54.346;18.562;2024-02-28T03:10:17;100644.25;;;2.74;100.00
57024;BME280;42916;54.346;18.562;2024-02-28T03:12:44;100637.14;;;2.75;100.00
57024;BME280;42916;54.346;18.562;2024-02-28T03:15:11;100638.18;;;2.76;100.00
57024;BME280;42916;54.346;18.562;2024-02-28T03:17:38;100641.66;;;2.74;100.00
57024;BME280;42916;54.346;18.562;2024-02-28T03:20:04;100643.71;;;2.74;100.00
57024;BME280;42916;54.346;18.562;2024-02-28T03:22:33;100640.42;;;2.74;100.00
57024;BME280;42916;54.346;18.562;2024-02-28T03:25:00;100635.33;;;2.75;100.00
57024;BME280;42916;54.346;18.562;2024-02-28T03:27:27;100638.33;;;2.79;100.00
57024;BME280;42916;54.346;18.562;2024-02-28T03:29:53;100638.52;;;2.83;100.00
57024;BME280;42916;54.346;18.562;2024-02-28T03:32:20;100641.96;;;2.85;100.00
57024;BME280;42916;54.346;18.562;2024-02-28T03:34:47;100646.50;;;2.86;100.00
57024;BME280;42916;54.346;18.562;2024-02-28T03:37:14;100651.80;;;2.86;100.00
57024;BME280;42916;54.346;18.562;2024-02-28T03:39:41;100649.16;;;2.86;100.00
57024;BME280;42916;54.346;18.562;2024-02-28T03:42:08;100652.55;;;2.86;100.00
57024;BME280;42916;54.346;18.562;2024-02-28T03:44:34;100655.70;;;2.87;100.00
57024;BME280;42916;54.346;18.562;2024-02-28T03:47:01;100657.55;;;2.86;100.00
57024;BME280;42916;54.346;18.562;2024-02-28T03:49:28;100659.83;;;2.88;100.00
57024;BME280;42916;54.346;18.562;2024-02-28T03:51:55;100658.73;;;2.91;100.00
57024;BME280;42916;54.346;18.562;2024-02-28T03:54:21;100661.65;;;2.95;100.00
57024;BME280;42916;54.346;18.562;2024-02-28T03:56:48;100657.53;;;2.98;100.00
57024;BME280;42916;54.346;18.562;2024-02-28T03:59:15;100654.99;;;2.97;100.00
57024;BME280;42916;54.346;18.562;2024-02-28T04:01:41;100654.91;;;2.94;100.00
57024;BME280;42916;54.346;18.562;2024-02-28T04:04:08;100654.57;;;2.92;100.00
57024;BME280;42916;54.346;18.562;2024-02-28T04:06:35;100650.35;;;2.93;100.00
57024;BME280;42916;54.346;18.562;2024-02-28T04:09:01;100645.66;;;2.95;100.00
57024;BME280;42916;54.346;18.562;2024-02-28T04:11:30;100642.29;;;2.94;100.00
57024;BME280;42916;54.346;18.562;2024-02-28T04:13:56;100642.45;;;2.95;100.00
57024;BME280;42916;54.346;18.562;2024-02-28T04:16:23;100640.80;;;2.92;100.00
57024;BME280;42916;54.346;18.562;2024-02-28T04:18:50;100641.56;;;2.89;100.00
57024;BME280;42916;54.346;18.562;2024-02-28T04:21:16;100643.84;;;2.87;100.00
57024;BME280;42916;54.346;18.562;2024-02-28T04:23:43;100644.45;;;2.88;100.00
57024;BME280;42916;54.346;18.562;2024-02-28T04:26:10;100646.44;;;2.88;100.00
57024;BME280;42916;54.346;18.562;2024-02-28T04:28:37;100642.01;;;2.87;100.00
57024;BME280;42916;54.346;18.562;2024-02-28T04:31:04;100646.48;;;2.87;100.00
57024;BME280;42916;54.346;18.562;2024-02-28T04:33:30;100641.81;;;2.87;100.00
57024;BME280;42916;54.346;18.562;2024-02-28T04:35:57;100643.91;;;2.88;100.00
57024;BME280;42916;54.346;18.562;2024-02-28T04:38:24;100639.16;;;2.87;100.00
57024;BME280;42916;54.346;18.562;2024-02-28T04:40:51;100644.53;;;2.87;100.00
57024;BME280;42916;54.346;18.562;2024-02-28T04:43:17;100649.13;;;2.89;100.00
57024;BME280;42916;54.346;18.562;2024-02-28T04:45:44;100645.61;;;2.88;100.00
57024;BME280;42916;54.346;18.562;2024-02-28T04:48:11;100645.36;;;2.88;100.00
57024;BME280;42916;54.346;18.562;2024-02-28T04:50:38;100644.91;;;2.88;100.00
57024;BME280;42916;54.346;18.562;2024-02-28T04:53:04;100652.52;;;2.89;100.00
57024;BME280;42916;54.346;18.562;2024-02-28T04:55:31;100652.88;;;2.87;100.00
57024;BME280;42916;54.346;18.562;2024-02-28T04:57:58;100657.17;;;2.86;100.00
57024;BME280;42916;54.346;18.562;2024-02-28T05:00:24;100652.95;;;2.82;100.00
57024;BME280;42916;54.346;18.562;2024-02-28T05:02:51;100651.23;;;2.81;100.00
57024;BME280;42916;54.346;18.562;2024-02-28T05:05:18;100657.30;;;2.79;100.00
57024;BME280;42916;54.346;18.562;2024-02-28T05:07:45;100656.39;;;2.80;100.00
57024;BME280;42916;54.346;18.562;2024-02-28T05:10:12;100656.27;;;2.82;100.00
57024;BME280;42916;54.346;18.562;2024-02-28T05:12:38;100653.40;;;2.82;100.00
57024;BME280;42916;54.346;18.562;2024-02-28T05:15:05;100654.44;;;2.84;100.00
57024;BME280;42916;54.346;18.562;2024-02-28T05:17:33;100657.04;;;2.84;100.00
57024;BME280;42916;54.346;18.562;2024-02-28T05:19:59;100655.69;;;2.85;100.00
57024;BME280;42916;54.346;18.562;2024-02-28T05:22:26;100650.36;;;2.86;100.00
57024;BME280;42916;54.346;18.562;2024-02-28T05:24:53;100650.60;;;2.87;100.00
57024;BME280;42916;54.346;18.562;2024-02-28T05:27:20;100649.66;;;2.86;100.00
57024;BME280;42916;54.346;18.562;2024-02-28T05:29:47;100657.13;;;2.85;100.00
57024;BME280;42916;54.346;18.562;2024-02-28T05:32:14;100656.73;;;2.86;100.00
57024;BME280;42916;54.346;18.562;2024-02-28T05:34:41;100657.01;;;2.86;100.00
57024;BME280;42916;54.346;18.562;2024-02-28T05:37:08;100658.33;;;2.87;100.00
57024;BME280;42916;54.346;18.562;2024-02-28T05:39:35;100660.48;;;2.86;100.00
57024;BME280;42916;54.346;18.562;2024-02-28T05:42:02;100663.75;;;2.88;100.00
57024;BME280;42916;54.346;18.562;2024-02-28T05:44:29;100663.70;;;2.91;100.00
57024;BME280;42916;54.346;18.562;2024-02-28T05:46:56;100668.17;;;2.94;100.00
57024;BME280;42916;54.346;18.562;2024-02-28T05:49:23;100670.70;;;2.95;100.00
57024;BME280;42916;54.346;18.562;2024-02-28T05:51:50;100673.27;;;2.93;100.00
57024;BME280;42916;54.346;18.562;2024-02-28T05:54:16;100680.12;;;2.93;100.00
57024;BME280;42916;54.346;18.562;2024-02-28T05:56:43;100680.77;;;2.91;100.00
57024;BME280;42916;54.346;18.562;2024-02-28T05:59:12;100678.33;;;2.90;100.00
57024;BME280;42916;54.346;18.562;2024-02-28T06:01:40;100687.48;;;2.89;100.00
57024;BME280;42916;54.346;18.562;2024-02-28T06:04:07;100686.54;;;2.89;100.00
57024;BME280;42916;54.346;18.562;2024-02-28T06:06:36;100685.85;;;2.90;100.00
57024;BME280;42916;54.346;18.562;2024-02-28T06:09:06;100683.74;;;2.91;100.00
57024;BME280;42916;54.346;18.562;2024-02-28T06:11:33;100686.19;;;2.93;100.00
57024;BME280;42916;54.346;18.562;2024-02-28T06:14:00;100688.27;;;2.95;100.00
57024;BME280;42916;54.346;18.562;2024-02-28T06:16:26;100684.73;;;2.96;100.00
57024;BME280;42916;54.346;18.562;2024-02-28T06:18:53;100683.95;;;2.96;100.00
57024;BME280;42916;54.346;18.562;2024-02-28T06:21:23;100684.33;;;2.99;100.00
57024;BME280;42916;54.346;18.562;2024-02-28T06:23:50;100688.94;;;3.04;100.00
57024;BME280;42916;54.346;18.562;2024-02-28T06:26:17;100692.35;;;3.08;100.00
57024;BME280;42916;54.346;18.562;2024-02-28T06:28:44;100693.95;;;3.11;100.00
57024;BME280;42916;54.346;18.562;2024-02-28T06:31:15;100696.98;;;3.14;100.00
57024;BME280;42916;54.346;18.562;2024-02-28T06:33:44;100693.30;;;3.14;100.00
57024;BME280;42916;54.346;18.562;2024-02-28T06:36:11;100692.73;;;3.14;100.00
57024;BME280;42916;54.346;18.562;2024-02-28T06:38:38;100692.23;;;3.13;100.00
57024;BME280;42916;54.346;18.562;2024-02-28T06:41:05;100686.20;;;3.11;100.00
57024;BME280;42916;54.346;18.562;2024-02-28T06:43:35;100685.16;;;3.10;100.00
57024;BME280;42916;54.346;18.562;2024-02-28T06:46:03;100685.88;;;3.08;100.00
57024;BME280;42916;54.346;18.562;2024-02-28T06:48:30;100690.50;;;3.09;100.00
57024;BME280;42916;54.346;18.562;2024-02-28T06:50:57;100688.27;;;3.09;100.00
57024;BME280;42916;54.346;18.562;2024-02-28T06:53:25;100697.55;;;3.11;100.00
57024;BME280;42916;54.346;18.562;2024-02-28T06:55:53;100694.86;;;3.12;100.00
57024;BME280;42916;54.346;18.562;2024-02-28T06:58:19;100698.91;;;3.11;100.00
57024;BME280;42916;54.346;18.562;2024-02-28T07:26:14;100719.05;;;3.43;100.00
57024;BME280;42916;54.346;18.562;2024-02-28T07:28:42;100722.27;;;3.44;100.00
57024;BME280;42916;54.346;18.562;2024-02-28T07:31:19;100721.39;;;3.40;100.00
57024;BME280;42916;54.346;18.562;2024-02-28T07:33:46;100721.58;;;3.38;100.00
57024;BME280;42916;54.346;18.562;2024-02-28T07:36:12;100722.65;;;3.38;100.00
57024;BME280;42916;54.346;18.562;2024-02-28T07:38:41;100717.29;;;3.42;100.00
57024;BME280;42916;54.346;18.562;2024-02-28T07:41:09;100713.30;;;3.48;100.00
57024;BME280;42916;54.346;18.562;2024-02-28T07:43:36;100721.64;;;3.50;100.00
57024;BME280;42916;54.346;18.562;2024-02-28T07:46:09;100727.77;;;3.54;100.00
57024;BME280;42916;54.346;18.562;2024-02-28T07:48:38;100728.66;;;3.58;100.00
57024;BME280;42916;54.346;18.562;2024-02-28T07:51:06;100727.86;;;3.61;100.00
57024;BME280;42916;54.346;18.562;2024-02-28T07:53:34;100726.73;;;3.64;100.00
57024;BME280;42916;54.346;18.562;2024-02-28T07:56:01;100725.92;;;3.66;100.00
57024;BME280;42916;54.346;18.562;2024-02-28T07:58:29;100729.93;;;3.66;100.00
57024;BME280;42916;54.346;18.562;2024-02-28T08:00:56;100738.42;;;3.63;100.00
57024;BME280;42916;54.346;18.562;2024-02-28T08:03:25;100744.24;;;3.63;100.00
57024;BME280;42916;54.346;18.562;2024-02-28T08:05:59;100736.48;;;3.56;100.00
57024;BME280;42916;54.346;18.562;2024-02-28T08:08:26;100738.13;;;3.54;100.00
57024;BME280;42916;54.346;18.562;2024-02-28T08:10:53;100737.84;;;3.55;100.00
57024;BME280;42916;54.346;18.562;2024-02-28T08:13:21;100739.98;;;3.56;100.00
57024;BME280;42916;54.346;18.562;2024-02-28T08:15:48;100741.70;;;3.60;100.00
57024;BME280;42916;54.346;18.562;2024-02-28T08:18:15;100744.70;;;3.62;100.00
57024;BME280;42916;54.346;18.562;2024-02-28T08:20:42;100746.02;;;3.61;100.00
57024;BME280;42916;54.346;18.562;2024-02-28T08:23:08;100746.57;;;3.61;100.00
57024;BME280;42916;54.346;18.562;2024-02-28T08:25:35;100749.08;;;3.62;100.00
57024;BME280;42916;54.346;18.562;2024-02-28T08:28:02;100744.36;;;3.60;100.00
57024;BME280;42916;54.346;18.562;2024-02-28T08:30:29;100749.00;;;3.61;100.00
57024;BME280;42916;54.346;18.562;2024-02-28T08:32:57;100750.77;;;3.62;100.00
57024;BME280;42916;54.346;18.562;2024-02-28T08:35:24;100750.55;;;3.66;100.00
57024;BME280;42916;54.346;18.562;2024-02-28T08:37:51;100749.64;;;3.69;100.00
57024;BME280;42916;54.346;18.562;2024-02-28T08:40:18;100750.10;;;3.68;100.00
57024;BME280;42916;54.346;18.562;2024-02-28T08:42:44;100745.45;;;3.67;100.00
57024;BME280;42916;54.346;18.562;2024-02-28T08:45:12;100747.38;;;3.69;100.00
57024;BME280;42916;54.346;18.562;2024-02-28T08:47:41;100747.54;;;3.70;100.00
57024;BME280;42916;54.346;18.562;2024-02-28T08:50:08;100751.08;;;3.73;100.00
57024;BME280;42916;54.346;18.562;2024-02-28T08:52:34;100745.05;;;3.77;100.00
57024;BME280;42916;54.346;18.562;2024-02-28T08:55:01;100743.55;;;3.77;100.00
57024;BME280;42916;54.346;18.562;2024-02-28T08:57:28;100749.27;;;3.81;100.00
57024;BME280;42916;54.346;18.562;2024-02-28T08:59:56;100751.89;;;3.84;100.00
57024;BME280;42916;54.346;18.562;2024-02-28T09:02:23;100759.10;;;3.86;100.00
57024;BME280;42916;54.346;18.562;2024-02-28T09:04:50;100756.91;;;3.88;100.00
57024;BME280;42916;54.346;18.562;2024-02-28T09:07:18;100752.82;;;3.88;100.00
57024;BME280;42916;54.346;18.562;2024-02-28T09:09:48;100750.75;;;3.91;100.00
57024;BME280;42916;54.346;18.562;2024-02-28T09:12:15;100756.77;;;3.95;100.00
57024;BME280;42916;54.346;18.562;2024-02-28T09:14:42;100761.21;;;3.96;100.00
57024;BME280;42916;54.346;18.562;2024-02-28T09:17:11;100768.38;;;3.98;100.00
57024;BME280;42916;54.346;18.562;2024-02-28T09:19:37;100767.70;;;3.91;100.00
57024;BME280;42916;54.346;18.562;2024-02-28T09:22:05;100775.87;;;3.86;100.00
57024;BME280;42916;54.346;18.562;2024-02-28T09:24:31;100769.87;;;3.86;100.00
57024;BME280;42916;54.346;18.562;2024-02-28T09:26:58;100766.33;;;3.90;100.00
57024;BME280;42916;54.346;18.562;2024-02-28T09:29:25;100762.57;;;3.95;100.00
57024;BME280;42916;54.346;18.562;2024-02-28T09:31:52;100767.52;;;4.00;100.00
57024;BME280;42916;54.346;18.562;2024-02-28T09:34:18;100765.95;;;4.05;100.00
57024;BME280;42916;54.346;18.562;2024-02-28T09:36:46;100763.05;;;4.05;100.00
57024;BME280;42916;54.346;18.562;2024-02-28T09:39:12;100764.45;;;4.04;100.00
57024;BME280;42916;54.346;18.562;2024-02-28T09:41:40;100771.05;;;4.05;100.00
57024;BME280;42916;54.346;18.562;2024-02-28T09:44:08;100773.09;;;4.08;100.00
57024;BME280;42916;54.346;18.562;2024-02-28T09:46:35;100777.02;;;4.09;100.00
57024;BME280;42916;54.346;18.562;2024-02-28T09:49:05;100769.90;;;4.09;100.00
57024;BME280;42916;54.346;18.562;2024-02-28T09:51:33;100774.80;;;4.13;100.00
57024;BME280;42916;54.346;18.562;2024-02-28T09:54:03;100778.04;;;4.18;100.00
57024;BME280;42916;54.346;18.562;2024-02-28T09:56:32;100778.95;;;4.25;100.00
57024;BME280;42916;54.346;18.562;2024-02-28T09:59:00;100780.95;;;4.28;100.00
57024;BME280;42916;54.346;18.562;2024-02-28T10:01:28;100783.13;;;4.34;100.00
57024;BME280;42916;54.346;18.562;2024-02-28T10:03:56;100784.86;;;4.38;100.00
57024;BME280;42916;54.346;18.562;2024-02-28T10:06:25;100787.58;;;4.45;100.00
57024;BME280;42916;54.346;18.562;2024-02-28T10:08:52;100784.88;;;4.49;100.00
57024;BME280;42916;54.346;18.562;2024-02-28T10:11:20;100785.84;;;4.57;100.00
57024;BME280;42916;54.346;18.562;2024-02-28T10:13:47;100784.64;;;4.60;100.00
57024;BME280;42916;54.346;18.562;2024-02-28T10:16:14;100781.44;;;4.52;100.00
57024;BME280;42916;54.346;18.562;2024-02-28T10:18:45;100784.98;;;4.42;100.00
57024;BME280;42916;54.346;18.562;2024-02-28T10:21:12;100788.13;;;4.40;100.00
57024;BME280;42916;54.346;18.562;2024-02-28T10:23:39;100788.15;;;4.42;100.00
57024;BME280;42916;54.346;18.562;2024-02-28T10:26:09;100799.27;;;4.47;100.00
57024;BME280;42916;54.346;18.562;2024-02-28T10:28:39;100801.39;;;4.52;100.00
57024;BME280;42916;54.346;18.562;2024-02-28T10:31:07;100806.07;;;4.53;100.00
57024;BME280;42916;54.346;18.562;2024-02-28T10:33:34;100807.36;;;4.56;100.00
57024;BME280;42916;54.346;18.562;2024-02-28T10:36:03;100805.23;;;4.58;100.00
57024;BME280;42916;54.346;18.562;2024-02-28T10:38:32;100808.77;;;4.64;100.00
57024;BME280;42916;54.346;18.562;2024-02-28T10:41:05;100807.27;;;4.67;100.00
57024;BME280;42916;54.346;18.562;2024-02-28T10:43:32;100812.60;;;4.67;100.00
57024;BME280;42916;54.346;18.562;2024-02-28T10:46:01;100811.63;;;4.68;100.00
57024;BME280;42916;54.346;18.562;2024-02-28T10:48:28;100808.29;;;4.70;100.00
57024;BME280;42916;54.346;18.562;2024-02-28T10:50:54;100807.71;;;4.72;100.00
57024;BME280;42916;54.346;18.562;2024-02-28T10:53:24;100809.86;;;4.77;100.00
57024;BME280;42916;54.346;18.562;2024-02-28T10:55:58;100815.25;;;4.79;100.00
57024;BME280;42916;54.346;18.562;2024-02-28T10:58:34;100808.54;;;4.78;100.00
57024;BME280;42916;54.346;18.562;2024-02-28T11:01:02;100805.05;;;4.78;100.00
57024;BME280;42916;54.346;18.562;2024-02-28T11:03:29;100802.02;;;4.76;100.00
57024;BME280;42916;54.346;18.562;2024-02-28T11:05:56;100806.46;;;4.70;100.00
57024;BME280;42916;54.346;18.562;2024-02-28T11:08:26;100810.56;;;4.69;100.00
57024;BME280;42916;54.346;18.562;2024-02-28T11:10:58;100810.55;;;4.68;100.00
57024;BME280;42916;54.346;18.562;2024-02-28T11:13:26;100813.01;;;4.68;100.00
57024;BME280;42916;54.346;18.562;2024-02-28T11:15:54;100806.67;;;4.70;100.00
57024;BME280;42916;54.346;18.562;2024-02-28T11:18:23;100807.25;;;4.78;100.00
57024;BME280;42916;54.346;18.562;2024-02-28T11:20:50;100811.19;;;4.87;100.00
57024;BME280;42916;54.346;18.562;2024-02-28T11:23:18;100814.42;;;4.90;100.00
57024;BME280;42916;54.346;18.562;2024-02-28T11:25:44;100812.39;;;4.95;100.00
57024;BME280;42916;54.346;18.562;2024-02-28T11:28:11;100818.33;;;4.99;100.00
57024;BME280;42916;54.346;18.562;2024-02-28T11:30:38;100818.77;;;5.04;100.00
57024;BME280;42916;54.346;18.562;2024-02-28T11:33:04;100825.62;;;5.08;100.00
57024;BME280;42916;54.346;18.562;2024-02-28T11:35:32;100822.72;;;5.10;100.00
57024;BME280;42916;54.346;18.562;2024-02-28T11:37:59;100813.09;;;5.12;100.00
57024;BME280;42916;54.346;18.562;2024-02-28T11:40:26;100814.45;;;5.18;100.00
57024;BME280;42916;54.346;18.562;2024-02-28T11:42:56;100812.94;;;5.26;100.00
57024;BME280;42916;54.346;18.562;2024-02-28T11:45:23;100818.17;;;5.29;100.00
57024;BME280;42916;54.346;18.562;2024-02-28T11:47:49;100818.91;;;5.30;100.00
57024;BME280;42916;54.346;18.562;2024-02-28T11:50:16;100822.44;;;5.35;100.00
57024;BME280;42916;54.346;18.562;2024-02-28T11:52:45;100819.27;;;5.37;100.00
57024;BME280;42916;54.346;18.562;2024-02-28T11:55:12;100825.75;;;5.32;100.00
57024;BME280;42916;54.346;18.562;2024-02-28T11:57:39;100826.85;;;5.26;100.00
57024;BME280;42916;54.346;18.562;2024-02-28T12:00:07;100829.38;;;5.23;100.00
57024;BME280;42916;54.346;18.562;2024-02-28T12:02:37;100831.64;;;5.20;100.00
57024;BME280;42916;54.346;18.562;2024-02-28T12:05:04;100832.79;;;5.19;100.00
57024;BME280;42916;54.346;18.562;2024-02-28T12:07:31;100831.21;;;5.19;100.00
57024;BME280;42916;54.346;18.562;2024-02-28T12:09:59;100832.42;;;5.17;100.00
57024;BME280;42916;54.346;18.562;2024-02-28T12:12:29;100837.98;;;5.13;100.00
57024;BME280;42916;54.346;18.562;2024-02-28T12:15:00;100843.99;;;5.11;100.00
57024;BME280;42916;54.346;18.562;2024-02-28T12:17:27;100846.38;;;5.09;100.00
57024;BME280;42916;54.346;18.562;2024-02-28T12:19:54;100843.67;;;5.05;100.00
57024;BME280;42916;54.346;18.562;2024-02-28T12:22:21;100839.14;;;5.04;100.00
57024;BME280;42916;54.346;18.562;2024-02-28T12:24:48;100841.80;;;5.04;100.00
57024;BME280;42916;54.346;18.562;2024-02-28T12:27:16;100842.02;;;5.05;100.00
57024;BME280;42916;54.346;18.562;2024-02-28T12:29:42;100847.33;;;5.07;100.00
57024;BME280;42916;54.346;18.562;2024-02-28T12:32:09;100848.48;;;5.11;100.00
57024;BME280;42916;54.346;18.562;2024-02-28T12:34:39;100845.54;;;5.14;100.00
57024;BME280;42916;54.346;18.562;2024-02-28T12:37:07;100840.52;;;5.15;100.00
57024;BME280;42916;54.346;18.562;2024-02-28T12:39:34;100843.38;;;5.13;100.00
57024;BME280;42916;54.346;18.562;2024-02-28T12:42:10;100841.06;;;5.13;100.00
57024;BME280;42916;54.346;18.562;2024-02-28T12:44:37;100839.01;;;5.17;100.00
57024;BME280;42916;54.346;18.562;2024-02-28T12:47:06;100842.79;;;5.19;100.00
57024;BME280;42916;54.346;18.562;2024-02-28T12:49:33;100845.45;;;5.19;100.00
57024;BME280;42916;54.346;18.562;2024-02-28T12:51:59;100844.75;;;5.15;100.00
57024;BME280;42916;54.346;18.562;2024-02-28T12:54:26;100846.16;;;5.16;100.00
57024;BME280;42916;54.346;18.562;2024-02-28T12:56:53;100847.02;;;5.14;100.00
57024;BME280;42916;54.346;18.562;2024-02-28T12:59:19;100849.14;;;5.13;100.00
57024;BME280;42916;54.346;18.562;2024-02-28T13:01:46;100847.89;;;5.10;100.00
57024;BME280;42916;54.346;18.562;2024-02-28T13:04:14;100848.57;;;4.99;100.00
57024;BME280;42916;54.346;18.562;2024-02-28T13:06:41;100843.75;;;4.93;100.00